createdAt,value
2022-09-15T00:01:43.534Z,15.88
2022-09-15T00:04:11.552Z,15.07
2022-09-15T00:06:39.860Z,18.60
2022-09-15T00:09:08.090Z,15.38
2022-09-15T00:11:38.277Z,19.55
2022-09-15T00:14:09.042Z,15.88
2022-09-15T00:16:37.408Z,23.95
2022-09-15T00:19:06.467Z,19.10
2022-09-15T00:21:36.453Z,16.70
2022-09-15T00:24:04.670Z,17.40
2022-09-15T00:26:32.869Z,18.95
2022-09-15T00:29:01.790Z,18.13
2022-09-15T00:31:32.689Z,18.38
2022-09-15T00:34:03.837Z,17.15
2022-09-15T00:36:32.358Z,18.75
2022-09-15T00:39:00.099Z,18.38
2022-09-15T00:41:28.175Z,15.05
2022-09-15T00:43:58.362Z,17.63
2022-09-15T00:46:28.921Z,19.27
2022-09-15T00:49:02.202Z,21.67
2022-09-15T00:51:38.457Z,14.98
2022-09-15T00:54:12.482Z,13.43
2022-09-15T02:47:32.122Z,6.30
2022-09-15T02:50:00.083Z,5.80
2022-09-15T02:52:27.778Z,4.15
2022-09-15T02:54:56.090Z,3.83
2022-09-15T02:57:24.195Z,4.15
2022-09-15T03:00:09.618Z,3.03
2022-09-15T03:02:39.079Z,2.20
2022-09-15T03:05:08.090Z,2.08
2022-09-15T03:07:36.871Z,2.17
2022-09-15T03:10:05.157Z,1.25
2022-09-15T03:12:33.251Z,1.15
2022-09-15T03:15:01.253Z,1.52
2022-09-15T03:17:29.078Z,1.60
2022-09-15T03:19:58.110Z,1.25
2022-09-15T03:22:25.838Z,5.95
2022-09-15T03:24:53.609Z,1.55
2022-09-15T03:27:21.340Z,1.50
2022-09-15T03:29:49.353Z,1.25
2022-09-15T03:32:17.291Z,2.92
2022-09-15T03:34:45.236Z,3.13
2022-09-15T03:37:14.512Z,5.55
2022-09-15T03:39:42.341Z,2.13
2022-09-15T03:42:10.208Z,3.63
2022-09-15T03:44:38.144Z,5.38
2022-09-15T03:47:06.512Z,3.10
2022-09-15T03:49:34.508Z,1.55
2022-09-15T03:52:03.034Z,2.13
2022-09-15T03:54:32.426Z,1.52
2022-09-15T03:57:00.398Z,2.28
2022-09-15T03:59:28.209Z,2.22
2022-09-15T04:01:56.325Z,4.47
2022-09-15T04:04:24.617Z,4.25
2022-09-15T04:06:55.360Z,2.28
2022-09-15T04:09:24.002Z,2.78
2022-09-15T04:11:53.481Z,3.92
2022-09-15T04:14:21.305Z,3.58
2022-09-15T04:16:49.098Z,7.00
2022-09-15T04:19:17.200Z,4.97
2022-09-15T04:21:45.734Z,6.03
2022-09-15T04:24:13.877Z,6.57
2022-09-15T04:26:41.768Z,7.32
2022-09-15T04:29:15.833Z,9.15
2022-09-15T04:31:43.629Z,8.85
2022-09-15T04:34:12.244Z,9.73
2022-09-15T04:36:40.170Z,10.15
2022-09-15T04:39:08.573Z,7.85
2022-09-15T04:41:36.410Z,11.93
2022-09-15T04:44:04.543Z,13.75
2022-09-15T04:46:34.298Z,18.35
2022-09-15T04:49:02.063Z,9.73
2022-09-15T04:51:30.188Z,12.77
2022-09-15T04:53:58.915Z,17.42
2022-09-15T04:56:27.301Z,14.35
2022-09-15T04:59:02.404Z,13.65
2022-09-15T05:01:35.550Z,13.73
2022-09-15T05:04:05.236Z,17.10
2022-09-15T05:06:34.659Z,11.68
2022-09-15T05:09:09.745Z,13.07
2022-09-15T05:11:39.035Z,16.00
2022-09-15T05:14:08.057Z,16.15
2022-09-15T05:16:37.369Z,16.63
2022-09-15T05:19:05.513Z,16.65
2022-09-15T05:21:33.812Z,15.18
2022-09-15T05:24:01.856Z,10.98
2022-09-15T05:26:30.854Z,10.20
2022-09-15T05:28:59.157Z,11.25
2022-09-15T05:31:28.972Z,8.43
2022-09-15T05:33:58.783Z,9.20
2022-09-15T05:36:26.898Z,10.25
2022-09-15T05:38:56.752Z,12.52
2022-09-15T05:41:26.161Z,11.15
2022-09-15T05:43:56.892Z,11.95
2022-09-15T05:46:27.083Z,10.90
2022-09-15T05:48:58.772Z,10.70
2022-09-15T05:51:26.841Z,11.27
2022-09-15T05:53:54.465Z,13.75
2022-09-15T05:56:22.505Z,13.85
2022-09-15T05:58:50.752Z,14.07
2022-09-15T06:01:21.328Z,9.70
2022-09-15T06:03:50.050Z,13.55
2022-09-15T06:06:19.731Z,19.20
2022-09-15T06:08:53.038Z,12.02
2022-09-15T06:11:24.003Z,13.88
2022-09-15T06:13:52.177Z,8.05
2022-09-15T06:16:22.438Z,9.13
2022-09-15T06:18:52.422Z,9.85
2022-09-15T06:21:23.709Z,9.48
2022-09-15T06:23:54.634Z,13.30
2022-09-15T06:26:23.212Z,11.10
2022-09-15T06:28:52.752Z,10.27
2022-09-15T06:31:21.058Z,14.27
2022-09-15T06:33:51.494Z,16.05
2022-09-15T06:36:22.521Z,9.75
2022-09-15T06:38:51.724Z,13.15
2022-09-15T06:41:19.900Z,8.35
2022-09-15T06:43:49.245Z,12.13
2022-09-15T06:46:18.767Z,12.40
2022-09-15T06:48:48.522Z,8.25
2022-09-15T06:51:18.651Z,12.55
2022-09-15T06:53:47.929Z,12.70
2022-09-15T06:56:17.924Z,8.38
2022-09-15T06:58:48.915Z,8.02
2022-09-15T07:01:21.661Z,8.00
2022-09-15T07:03:49.921Z,7.20
2022-09-15T07:06:18.096Z,8.40
2022-09-15T07:08:48.299Z,9.20
2022-09-15T07:11:17.088Z,6.25
2022-09-15T07:13:44.965Z,6.70
2022-09-15T07:16:14.026Z,6.13
2022-09-15T07:18:43.484Z,4.90
2022-09-15T07:21:14.723Z,4.93
2022-09-15T07:23:47.123Z,6.90
2022-09-15T07:26:18.439Z,5.60
2022-09-15T07:28:49.931Z,5.25
2022-09-15T07:31:20.145Z,8.00
2022-09-15T07:33:48.530Z,6.20
2022-09-15T07:36:17.241Z,3.38
2022-09-15T07:38:48.193Z,8.43
2022-09-15T07:41:18.941Z,6.50
2022-09-15T07:43:48.096Z,3.88
2022-09-15T07:46:16.348Z,4.55
2022-09-15T07:48:46.160Z,6.57
2022-09-15T07:51:17.209Z,5.07
2022-09-15T07:53:49.400Z,7.43
2022-09-15T07:56:19.698Z,7.95
2022-09-15T07:58:48.924Z,3.85
2022-09-15T08:01:18.211Z,6.32
2022-09-15T08:03:48.943Z,7.95
2022-09-15T08:06:19.089Z,9.30
2022-09-15T08:08:47.145Z,5.55
2022-09-15T08:11:19.034Z,7.22
2022-09-15T08:13:49.695Z,3.17
2022-09-15T08:16:19.715Z,5.65
2022-09-15T08:18:49.005Z,6.88
2022-09-15T08:21:20.071Z,5.70
2022-09-15T08:23:51.850Z,3.70
2022-09-15T08:26:20.089Z,8.45
2022-09-15T08:28:50.520Z,7.75
2022-09-15T08:31:19.006Z,4.60
2022-09-15T08:33:49.503Z,7.47
2022-09-15T08:36:17.531Z,8.18
2022-09-15T08:38:46.552Z,7.38
2022-09-15T08:41:19.798Z,6.78
2022-09-15T08:43:54.239Z,4.47
2022-09-15T08:46:27.605Z,4.05
2022-09-15T08:49:03.132Z,4.15
2022-09-15T08:51:38.212Z,6.85
2022-09-15T08:54:12.445Z,7.60
2022-09-15T08:56:42.601Z,7.10
2022-09-15T08:59:15.284Z,6.20
2022-09-15T09:02:08.588Z,6.67
2022-09-15T09:05:00.475Z,4.57
2022-09-15T09:07:44.053Z,3.25
2022-09-15T09:10:17.443Z,7.65
2022-09-15T09:12:57.934Z,6.95
2022-09-15T09:15:40.901Z,4.18
2022-09-15T09:18:42.825Z,4.60
2022-09-15T09:21:20.200Z,7.85
2022-09-15T09:23:54.401Z,3.85
2022-09-15T09:26:22.270Z,7.95
2022-09-15T09:28:56.039Z,4.05
2022-09-15T09:31:26.756Z,5.93
2022-09-15T09:33:59.965Z,4.43
2022-09-15T09:36:28.428Z,4.43
2022-09-15T09:38:57.561Z,5.55
2022-09-15T09:41:35.750Z,4.22
2022-09-15T09:44:05.186Z,4.45
2022-09-15T09:46:34.693Z,6.40
2022-09-15T09:49:06.364Z,8.57
2022-09-15T09:51:38.232Z,5.47
2022-09-15T09:54:11.610Z,5.85
2022-09-15T09:56:40.608Z,6.75
2022-09-15T09:59:34.611Z,10.02
2022-09-15T10:04:43.606Z,4.65
2022-09-15T10:07:12.771Z,5.97
2022-09-15T10:09:41.247Z,3.70
2022-09-15T10:12:20.317Z,4.53
2022-09-15T10:14:53.100Z,5.03
2022-09-15T10:17:24.384Z,4.55
2022-09-15T10:19:59.290Z,5.95
2022-09-15T10:22:33.731Z,4.30
2022-09-15T10:25:02.850Z,5.07
2022-09-15T10:27:33.244Z,4.30
2022-09-15T10:30:17.777Z,4.53
2022-09-15T10:32:48.593Z,5.15
2022-09-15T10:35:19.073Z,5.80
2022-09-15T10:38:00.106Z,7.45
2022-09-15T10:40:35.080Z,8.98
2022-09-15T10:43:17.296Z,7.80
2022-09-15T10:45:49.880Z,4.90
2022-09-15T10:48:36.905Z,4.57
2022-09-15T10:51:18.078Z,5.05
2022-09-15T10:54:04.460Z,9.60
2022-09-15T10:56:38.080Z,8.15
2022-09-15T10:59:28.033Z,8.18
2022-09-15T11:02:10.656Z,7.78
2022-09-15T11:04:56.416Z,7.10
2022-09-15T11:07:33.025Z,7.95
2022-09-15T11:10:09.801Z,6.82
2022-09-15T11:12:52.757Z,8.70
2022-09-15T11:15:34.392Z,7.05
2022-09-15T11:18:20.134Z,6.40
2022-09-15T11:21:04.249Z,8.98
2022-09-15T11:23:36.270Z,9.93
2022-09-15T11:26:09.896Z,9.40
2022-09-15T11:28:42.881Z,10.50
2022-09-15T11:31:17.514Z,13.45
2022-09-15T11:33:51.318Z,13.80
2022-09-15T11:36:24.014Z,9.68
2022-09-15T11:38:56.557Z,9.00
2022-09-15T11:41:30.904Z,14.20
2022-09-15T11:44:12.442Z,12.60
2022-09-15T11:46:58.515Z,9.73
2022-09-15T11:49:32.137Z,13.35
2022-09-15T11:54:39.124Z,10.60
2022-09-15T11:57:14.202Z,14.68
2022-09-15T11:59:48.207Z,10.23
2022-09-15T12:02:24.422Z,10.60
2022-09-15T12:05:05.154Z,10.27
2022-09-15T12:07:39.993Z,10.20
2022-09-15T12:10:16.358Z,13.63
2022-09-15T12:12:46.153Z,11.60
2022-09-15T12:15:19.428Z,10.02
2022-09-15T12:20:26.152Z,10.75
2022-09-15T12:23:00.115Z,8.63
2022-09-15T12:25:34.429Z,9.20
2022-09-15T12:28:28.153Z,9.18
2022-09-15T12:31:25.002Z,7.70
2022-09-15T12:33:58.441Z,9.82
2022-09-15T12:39:22.900Z,9.90
2022-09-15T12:41:53.222Z,7.85
2022-09-15T12:44:26.134Z,8.38
2022-09-15T12:46:57.151Z,9.77
2022-09-15T12:49:31.423Z,5.07
2022-09-15T12:52:02.230Z,7.85
2022-09-15T12:54:33.803Z,5.25
2022-09-15T12:57:02.416Z,5.78
2022-09-15T12:59:30.876Z,9.77
2022-09-15T13:01:59.255Z,8.93
2022-09-15T13:04:52.051Z,8.02
2022-09-15T13:07:50.981Z,8.18
2022-09-15T13:10:34.442Z,4.97
2022-09-15T13:13:23.741Z,3.92
2022-09-15T13:15:56.322Z,6.22
2022-09-15T13:18:26.519Z,6.60
2022-09-15T13:21:00.084Z,5.10
2022-09-15T13:23:29.763Z,5.82
2022-09-15T13:26:01.230Z,4.35
2022-09-15T13:28:29.876Z,4.78
2022-09-15T13:31:24.354Z,4.97
2022-09-15T13:41:00.339Z,15.15
2022-09-15T13:43:55.693Z,5.05
2022-09-15T13:46:38.887Z,7.28
2022-09-15T13:49:28.517Z,6.60
2022-09-15T13:52:01.820Z,5.05
2022-09-15T13:54:30.179Z,5.78
2022-09-15T13:57:01.370Z,7.15
2022-09-15T13:59:33.701Z,3.33
2022-09-15T14:02:02.217Z,5.57
2022-09-15T14:04:32.294Z,5.50
2022-09-15T14:07:02.522Z,5.35
2022-09-15T14:09:34.353Z,4.93
2022-09-15T14:12:06.224Z,6.32
2022-09-15T14:14:39.031Z,7.07
2022-09-15T14:17:07.673Z,4.60
2022-09-15T14:19:37.977Z,5.15
2022-09-15T14:22:26.082Z,4.90
2022-09-15T14:24:54.585Z,4.20
2022-09-15T14:27:24.925Z,8.27
2022-09-15T14:29:57.697Z,4.15
2022-09-15T14:32:27.874Z,3.75
2022-09-15T14:34:58.186Z,4.50
2022-09-15T14:37:28.589Z,6.05
2022-09-15T14:39:58.187Z,5.38
2022-09-15T14:42:30.607Z,4.28
2022-09-15T14:48:04.205Z,3.90
2022-09-15T14:50:33.627Z,4.65
2022-09-15T14:53:05.275Z,4.70
2022-09-15T14:55:49.311Z,5.72
2022-09-15T14:58:22.994Z,3.65
2022-09-15T15:00:58.504Z,4.20
2022-09-15T15:03:36.233Z,4.65
2022-09-15T15:06:28.303Z,6.35
2022-09-15T15:09:04.251Z,6.47
2022-09-15T15:11:33.998Z,5.75
2022-09-15T15:14:04.670Z,3.28
2022-09-15T15:16:34.920Z,4.32
2022-09-15T15:19:02.867Z,3.72
2022-09-15T15:21:39.807Z,5.72
2022-09-15T15:24:19.128Z,7.43
2022-09-15T15:26:49.116Z,5.53
2022-09-15T15:29:40.970Z,4.88
2022-09-15T15:32:15.348Z,5.07
2022-09-15T15:34:50.038Z,4.55
2022-09-15T15:37:25.906Z,5.60
2022-09-15T15:39:55.098Z,5.78
2022-09-15T15:42:24.471Z,4.82
2022-09-15T15:45:22.824Z,5.28
2022-09-15T15:47:52.876Z,5.57
2022-09-15T15:50:23.808Z,4.20
2022-09-15T15:52:52.965Z,5.80
2022-09-15T15:55:22.785Z,3.95
2022-09-15T15:57:53.316Z,5.93
2022-09-15T16:00:26.419Z,5.25
2022-09-15T16:02:55.597Z,5.05
2022-09-15T16:05:28.305Z,6.57
2022-09-15T16:07:58.717Z,5.32
2022-09-15T16:10:31.008Z,4.85
2022-09-15T16:12:59.120Z,7.05
2022-09-15T16:15:28.397Z,8.82
2022-09-15T16:17:57.841Z,5.55
2022-09-15T16:20:25.631Z,3.88
2022-09-15T16:22:53.537Z,5.10
2022-09-15T16:25:29.202Z,7.95
2022-09-15T16:27:57.188Z,5.22
2022-09-15T16:30:25.676Z,4.05
2022-09-15T16:32:53.484Z,5.13
2022-09-15T16:35:32.119Z,3.67
2022-09-15T16:37:59.911Z,3.58
2022-09-15T16:40:28.620Z,3.42
2022-09-15T16:42:56.754Z,3.95
2022-09-15T16:45:30.537Z,5.07
2022-09-15T16:47:58.916Z,5.10
2022-09-15T16:50:29.066Z,3.03
2022-09-15T16:52:57.460Z,5.28
2022-09-15T16:55:33.026Z,6.05
2022-09-15T16:58:00.949Z,4.15
2022-09-15T17:00:32.618Z,3.70
2022-09-15T17:03:00.969Z,5.72
2022-09-15T17:05:33.866Z,4.63
2022-09-15T17:08:02.209Z,6.35
2022-09-15T17:10:30.608Z,6.25
2022-09-15T17:12:58.890Z,4.30
2022-09-15T17:15:29.447Z,7.15
2022-09-15T17:17:58.836Z,4.97
2022-09-15T17:20:27.496Z,6.78
2022-09-15T17:22:58.988Z,6.55
2022-09-15T17:25:32.807Z,7.68
2022-09-15T17:28:00.686Z,6.57
2022-09-15T17:30:33.508Z,3.38
2022-09-15T17:33:02.570Z,6.25
2022-09-15T17:35:34.971Z,4.03
2022-09-15T17:38:06.656Z,3.53
2022-09-15T17:40:36.528Z,6.15
2022-09-15T17:43:04.716Z,4.45
2022-09-15T17:45:35.402Z,6.00
2022-09-15T17:48:04.994Z,5.65
2022-09-15T17:50:35.864Z,6.05
2022-09-15T17:53:12.737Z,3.70
2022-09-15T17:55:42.426Z,6.22
2022-09-15T17:58:13.108Z,4.72
2022-09-15T18:00:43.194Z,4.75
2022-09-15T18:03:22.644Z,7.00
2022-09-15T18:05:51.372Z,4.65
2022-09-15T18:08:21.360Z,5.32
2022-09-15T18:10:52.265Z,7.13
2022-09-15T18:13:22.343Z,10.65
2022-09-15T18:15:51.814Z,4.20
2022-09-15T18:18:21.795Z,5.97
2022-09-15T18:20:53.076Z,6.03
2022-09-15T18:23:24.987Z,5.20
2022-09-15T18:25:53.221Z,5.82
2022-09-15T18:28:21.964Z,4.40
2022-09-15T18:30:51.621Z,6.03
2022-09-15T18:33:23.710Z,5.38
2022-09-15T18:35:54.476Z,7.57
2022-09-15T18:38:25.244Z,7.00
2022-09-15T18:40:55.446Z,9.32
2022-09-15T18:43:25.062Z,10.00
2022-09-15T18:45:55.355Z,5.57
2022-09-15T18:48:26.960Z,4.55
2022-09-15T18:50:55.982Z,5.18
2022-09-15T18:53:28.697Z,6.60
2022-09-15T18:55:57.296Z,4.63
2022-09-15T18:58:25.727Z,4.28
2022-09-15T19:01:00.954Z,7.43
2022-09-15T19:03:29.529Z,7.43
2022-09-15T19:06:03.054Z,4.55
2022-09-15T19:08:34.624Z,4.95
2022-09-15T19:11:06.434Z,5.40
2022-09-15T19:13:35.929Z,6.55
2022-09-15T19:16:08.966Z,4.43
2022-09-15T19:18:37.601Z,3.58
2022-09-15T19:21:08.488Z,3.92
2022-09-15T19:23:39.294Z,4.25
2022-09-15T19:26:09.253Z,6.03
2022-09-15T19:28:41.163Z,22.23
2022-09-15T19:31:10.074Z,6.32
2022-09-15T19:33:38.246Z,4.53
2022-09-15T19:36:28.331Z,4.55
2022-09-15T19:39:03.317Z,6.97
2022-09-15T19:41:32.176Z,5.97
2022-09-15T19:44:02.594Z,8.95
2022-09-15T19:46:31.240Z,4.97
2022-09-15T19:49:02.663Z,4.38
2022-09-15T19:51:32.338Z,5.43
2022-09-15T19:54:04.259Z,6.40
2022-09-15T19:56:33.800Z,4.05
2022-09-15T19:59:03.044Z,3.53
2022-09-15T20:01:32.746Z,6.78
2022-09-15T20:04:02.088Z,5.97
2022-09-15T20:06:32.787Z,7.35
2022-09-15T20:09:02.946Z,5.68
2022-09-15T20:11:32.191Z,4.50
2022-09-15T20:14:00.100Z,3.88
2022-09-15T20:16:28.780Z,4.65
2022-09-15T20:18:58.222Z,4.05
2022-09-15T20:21:48.546Z,8.80
2022-09-15T20:24:20.347Z,6.25
2022-09-15T20:26:48.610Z,6.80
2022-09-15T20:29:17.155Z,5.55
2022-09-15T20:31:45.746Z,4.93
2022-09-15T20:34:13.634Z,5.90
2022-09-15T20:36:41.889Z,4.43
2022-09-15T20:39:14.517Z,4.20
2022-09-15T20:41:46.020Z,7.60
2022-09-15T20:44:14.433Z,4.57
2022-09-15T20:46:42.717Z,5.32
2022-09-15T20:49:13.499Z,5.18
2022-09-15T20:51:42.435Z,3.55
2022-09-15T20:54:11.857Z,4.00
2022-09-15T20:56:40.494Z,6.65
2022-09-15T20:59:15.223Z,3.00
2022-09-15T21:01:43.557Z,4.40
2022-09-15T21:04:11.961Z,6.95
2022-09-15T21:06:40.163Z,5.60
2022-09-15T21:09:08.757Z,3.30
2022-09-15T21:11:37.310Z,6.72
2022-09-15T21:14:05.720Z,7.05
2022-09-15T21:16:35.299Z,5.97
2022-09-15T21:19:03.227Z,5.45
2022-09-15T21:21:33.706Z,4.88
2022-09-15T21:24:04.303Z,2.92
2022-09-15T21:26:36.019Z,5.38
2022-09-15T21:29:04.364Z,6.63
2022-09-15T21:31:33.682Z,5.07
2022-09-15T21:34:03.273Z,3.95
2022-09-15T21:36:32.863Z,6.78
2022-09-15T21:39:02.936Z,4.43
2022-09-15T21:41:31.366Z,3.67
2022-09-15T21:44:00.594Z,5.07
2022-09-15T21:46:30.145Z,4.93
2022-09-15T21:48:59.403Z,4.65
2022-09-15T21:51:30.889Z,5.53
2022-09-15T21:54:00.793Z,3.42
2022-09-15T21:56:31.346Z,5.82
2022-09-15T21:58:59.158Z,4.65
2022-09-15T22:01:29.397Z,2.35
2022-09-15T22:03:59.097Z,2.15
2022-09-15T22:06:33.463Z,2.95
2022-09-15T22:09:02.887Z,3.83
2022-09-15T22:11:31.504Z,2.58
2022-09-15T22:14:00.216Z,2.88
2022-09-15T22:16:28.067Z,4.00
2022-09-15T22:18:57.122Z,4.85
2022-09-15T22:21:27.299Z,4.90
2022-09-15T22:23:59.435Z,5.53
2022-09-15T22:26:29.461Z,2.50
2022-09-15T22:28:59.587Z,5.07
2022-09-15T22:31:29.393Z,4.55
2022-09-15T22:33:58.429Z,2.20
2022-09-15T22:36:30.023Z,4.68
2022-09-15T22:39:04.734Z,4.78
2022-09-15T22:41:36.220Z,4.55
2022-09-15T22:44:05.236Z,4.38
2022-09-15T22:46:35.266Z,7.35
2022-09-15T22:49:04.249Z,7.50
2022-09-15T22:51:32.034Z,5.35
2022-09-15T22:54:05.835Z,5.10
2022-09-15T22:56:34.457Z,40.85
2022-09-15T22:59:02.977Z,22.38
2022-09-15T23:01:31.765Z,44.08
2022-09-15T23:04:03.729Z,29.90
2022-09-15T23:06:34.526Z,26.13
2022-09-15T23:09:07.386Z,7.82
2022-09-15T23:11:39.637Z,12.10
2022-09-15T23:14:08.759Z,17.60
2022-09-15T23:16:36.809Z,7.55
2022-09-15T23:19:12.922Z,1.00
2022-09-15T23:21:41.070Z,8.73
2022-09-15T23:24:12.547Z,4.53
2022-09-15T23:26:41.257Z,0.95
2022-09-15T23:29:10.061Z,2.13
2022-09-15T23:31:38.275Z,1.58
2022-09-15T23:34:06.772Z,3.70
2022-09-15T23:36:35.410Z,1.13
2022-09-15T23:39:04.725Z,1.48
2022-09-15T23:41:34.514Z,0.93
2022-09-15T23:44:03.020Z,2.05
2022-09-15T23:46:31.327Z,1.02
2022-09-15T23:48:59.416Z,1.13
2022-09-15T23:51:27.447Z,1.48
2022-09-15T23:53:55.364Z,2.17
2022-09-15T23:56:26.454Z,1.42
2022-09-15T23:58:55.957Z,2.35
